sensor_id;sensor_type;location;lat;lon;timestamp;P1;durP1;ratioP1;P2;durP2;ratioP2
53843;SDS011;39744;53.314;5.710;2023-06-26T00:01:35;14.90;;;10.15;;
53843;SDS011;39744;53.314;5.710;2023-06-26T00:04:01;10.35;;;8.88;;
53843;SDS011;39744;53.314;5.710;2023-06-26T00:06:27;11.43;;;9.25;;
53843;SDS011;39744;53.314;5.710;2023-06-26T00:08:53;12.50;;;9.63;;
53843;SDS011;39744;53.314;5.710;2023-06-26T00:11:19;10.48;;;8.63;;
53843;SDS011;39744;53.314;5.710;2023-06-26T00:13:46;11.98;;;9.23;;
53843;SDS011;39744;53.314;5.710;2023-06-26T00:16:12;12.35;;;8.98;;
53843;SDS011;39744;53.314;5.710;2023-06-26T00:18:38;12.80;;;8.85;;
53843;SDS011;39744;53.314;5.710;2023-06-26T00:21:04;12.13;;;9.13;;
53843;SDS011;39744;53.314;5.710;2023-06-26T00:23:30;14.05;;;9.27;;
53843;SDS011;39744;53.314;5.710;2023-06-26T00:25:58;12.52;;;9.55;;
53843;SDS011;39744;53.314;5.710;2023-06-26T00:28:24;12.80;;;9.95;;
53843;SDS011;39744;53.314;5.710;2023-06-26T00:30:49;12.18;;;9.27;;
53843;SDS011;39744;53.314;5.710;2023-06-26T00:33:16;12.82;;;9.68;;
53843;SDS011;39744;53.314;5.710;2023-06-26T00:35:42;12.27;;;9.77;;
53843;SDS011;39744;53.314;5.710;2023-06-26T00:38:07;15.50;;;10.65;;
53843;SDS011;39744;53.314;5.710;2023-06-26T00:40:34;12.52;;;9.70;;
53843;SDS011;39744;53.314;5.710;2023-06-26T00:42:59;11.60;;;9.27;;
53843;SDS011;39744;53.314;5.710;2023-06-26T00:45:25;18.58;;;9.32;;
53843;SDS011;39744;53.314;5.710;2023-06-26T00:47:51;11.50;;;9.45;;
53843;SDS011;39744;53.314;5.710;2023-06-26T00:50:18;12.65;;;9.60;;
53843;SDS011;39744;53.314;5.710;2023-06-26T00:52:44;12.50;;;10.05;;
53843;SDS011;39744;53.314;5.710;2023-06-26T00:55:10;13.48;;;9.43;;
53843;SDS011;39744;53.314;5.710;2023-06-26T00:57:36;12.27;;;9.40;;
53843;SDS011;39744;53.314;5.710;2023-06-26T01:00:02;12.90;;;9.82;;
53843;SDS011;39744;53.314;5.710;2023-06-26T01:02:29;12.50;;;9.98;;
53843;SDS011;39744;53.314;5.710;2023-06-26T01:04:58;12.68;;;10.10;;
53843;SDS011;39744;53.314;5.710;2023-06-26T01:07:25;13.15;;;10.50;;
53843;SDS011;39744;53.314;5.710;2023-06-26T01:09:51;13.32;;;10.05;;
53843;SDS011;39744;53.314;5.710;2023-06-26T01:12:17;12.95;;;10.77;;
53843;SDS011;39744;53.314;5.710;2023-06-26T01:14:43;12.52;;;10.27;;
53843;SDS011;39744;53.314;5.710;2023-06-26T01:17:09;14.63;;;10.57;;
53843;SDS011;39744;53.314;5.710;2023-06-26T01:19:40;14.45;;;10.60;;
53843;SDS011;39744;53.314;5.710;2023-06-26T01:24:39;13.85;;;10.70;;
53843;SDS011;39744;53.314;5.710;2023-06-26T01:27:07;15.60;;;12.23;;
53843;SDS011;39744;53.314;5.710;2023-06-26T01:29:34;15.98;;;12.45;;
53843;SDS011;39744;53.314;5.710;2023-06-26T01:32:00;14.98;;;11.95;;
53843;SDS011;39744;53.314;5.710;2023-06-26T01:34:26;15.43;;;12.27;;
53843;SDS011;39744;53.314;5.710;2023-06-26T01:36:53;13.77;;;11.77;;
53843;SDS011;39744;53.314;5.710;2023-06-26T01:39:19;15.02;;;12.52;;
53843;SDS011;39744;53.314;5.710;2023-06-26T01:41:45;13.60;;;12.15;;
53843;SDS011;39744;53.314;5.710;2023-06-26T01:44:15;14.70;;;11.68;;
53843;SDS011;39744;53.314;5.710;2023-06-26T01:46:49;15.48;;;12.85;;
53843;SDS011;39744;53.314;5.710;2023-06-26T01:54:33;15.75;;;12.07;;
53843;SDS011;39744;53.314;5.710;2023-06-26T01:57:00;16.40;;;12.77;;
53843;SDS011;39744;53.314;5.710;2023-06-26T01:59:26;16.00;;;12.35;;
53843;SDS011;39744;53.314;5.710;2023-06-26T02:01:54;15.23;;;11.35;;
53843;SDS011;39744;53.314;5.710;2023-06-26T02:04:20;14.63;;;11.93;;
53843;SDS011;39744;53.314;5.710;2023-06-26T02:06:46;16.35;;;12.48;;
53843;SDS011;39744;53.314;5.710;2023-06-26T02:09:12;13.90;;;11.77;;
53843;SDS011;39744;53.314;5.710;2023-06-26T02:11:38;15.88;;;12.70;;
53843;SDS011;39744;53.314;5.710;2023-06-26T02:14:04;14.90;;;12.05;;
53843;SDS011;39744;53.314;5.710;2023-06-26T02:16:30;14.30;;;11.27;;
53843;SDS011;39744;53.314;5.710;2023-06-26T02:18:56;13.60;;;10.90;;
53843;SDS011;39744;53.314;5.710;2023-06-26T02:21:23;13.52;;;10.98;;
53843;SDS011;39744;53.314;5.710;2023-06-26T02:23:49;15.13;;;9.98;;
53843;SDS011;39744;53.314;5.710;2023-06-26T02:26:15;12.80;;;9.68;;
53843;SDS011;39744;53.314;5.710;2023-06-26T02:28:41;12.57;;;8.65;;
53843;SDS011;39744;53.314;5.710;2023-06-26T02:31:07;13.57;;;8.65;;
53843;SDS011;39744;53.314;5.710;2023-06-26T02:33:33;19.67;;;9.52;;
53843;SDS011;39744;53.314;5.710;2023-06-26T02:35:59;13.63;;;8.93;;
53843;SDS011;39744;53.314;5.710;2023-06-26T02:38:25;15.90;;;9.13;;
53843;SDS011;39744;53.314;5.710;2023-06-26T02:40:51;13.85;;;9.10;;
53843;SDS011;39744;53.314;5.710;2023-06-26T02:43:17;15.48;;;9.60;;
53843;SDS011;39744;53.314;5.710;2023-06-26T02:45:43;13.55;;;8.88;;
53843;SDS011;39744;53.314;5.710;2023-06-26T02:48:09;14.63;;;9.13;;
53843;SDS011;39744;53.314;5.710;2023-06-26T02:50:35;15.07;;;9.27;;
53843;SDS011;39744;53.314;5.710;2023-06-26T02:53:01;17.70;;;9.63;;
53843;SDS011;39744;53.314;5.710;2023-06-26T02:55:27;13.05;;;8.80;;
53843;SDS011;39744;53.314;5.710;2023-06-26T02:57:53;15.02;;;8.85;;
53843;SDS011;39744;53.314;5.710;2023-06-26T03:00:19;16.48;;;9.07;;
53843;SDS011;39744;53.314;5.710;2023-06-26T03:02:45;16.45;;;9.23;;
53843;SDS011;39744;53.314;5.710;2023-06-26T03:05:11;15.93;;;9.90;;
53843;SDS011;39744;53.314;5.710;2023-06-26T03:07:38;15.45;;;9.73;;
53843;SDS011;39744;53.314;5.710;2023-06-26T03:10:04;16.75;;;8.77;;
53843;SDS011;39744;53.314;5.710;2023-06-26T03:12:30;15.77;;;9.20;;
53843;SDS011;39744;53.314;5.710;2023-06-26T03:14:56;15.70;;;9.75;;
53843;SDS011;39744;53.314;5.710;2023-06-26T03:17:23;15.05;;;8.60;;
53843;SDS011;39744;53.314;5.710;2023-06-26T03:19:48;15.52;;;9.50;;
53843;SDS011;39744;53.314;5.710;2023-06-26T03:22:14;18.10;;;9.75;;
53843;SDS011;39744;53.314;5.710;2023-06-26T03:24:40;17.35;;;8.85;;
53843;SDS011;39744;53.314;5.710;2023-06-26T03:27:06;15.65;;;8.82;;
53843;SDS011;39744;53.314;5.710;2023-06-26T03:29:34;25.48;;;9.48;;
53843;SDS011;39744;53.314;5.710;2023-06-26T03:32:00;19.13;;;9.05;;
53843;SDS011;39744;53.314;5.710;2023-06-26T03:34:26;19.20;;;9.27;;
53843;SDS011;39744;53.314;5.710;2023-06-26T03:36:52;19.35;;;9.23;;
53843;SDS011;39744;53.314;5.710;2023-06-26T03:39:18;14.70;;;9.35;;
53843;SDS011;39744;53.314;5.710;2023-06-26T03:41:44;20.58;;;10.20;;
53843;SDS011;39744;53.314;5.710;2023-06-26T03:44:10;18.05;;;9.55;;
53843;SDS011;39744;53.314;5.710;2023-06-26T03:46:37;25.45;;;9.98;;
53843;SDS011;39744;53.314;5.710;2023-06-26T03:49:03;20.00;;;10.82;;
53843;SDS011;39744;53.314;5.710;2023-06-26T03:51:29;19.80;;;10.80;;
53843;SDS011;39744;53.314;5.710;2023-06-26T03:53:55;21.83;;;11.55;;
53843;SDS011;39744;53.314;5.710;2023-06-26T03:56:21;30.80;;;12.57;;
53843;SDS011;39744;53.314;5.710;2023-06-26T03:58:47;25.30;;;12.52;;
53843;SDS011;39744;53.314;5.710;2023-06-26T04:01:13;22.85;;;12.32;;
53843;SDS011;39744;53.314;5.710;2023-06-26T04:03:39;24.48;;;12.27;;
53843;SDS011;39744;53.314;5.710;2023-06-26T04:06:05;22.77;;;9.60;;
53843;SDS011;39744;53.314;5.710;2023-06-26T04:08:31;17.60;;;8.40;;
53843;SDS011;39744;53.314;5.710;2023-06-26T04:10:57;21.17;;;8.02;;
53843;SDS011;39744;53.314;5.710;2023-06-26T04:13:23;20.38;;;8.07;;
53843;SDS011;39744;53.314;5.710;2023-06-26T04:15:49;18.95;;;6.95;;
53843;SDS011;39744;53.314;5.710;2023-06-26T04:18:16;15.80;;;6.35;;
53843;SDS011;39744;53.314;5.710;2023-06-26T04:21:03;13.68;;;5.65;;
53843;SDS011;39744;53.314;5.710;2023-06-26T04:23:29;12.95;;;5.63;;
53843;SDS011;39744;53.314;5.710;2023-06-26T04:25:55;14.98;;;5.55;;
53843;SDS011;39744;53.314;5.710;2023-06-26T04:28:23;14.98;;;5.80;;
53843;SDS011;39744;53.314;5.710;2023-06-26T04:30:49;16.27;;;6.13;;
53843;SDS011;39744;53.314;5.710;2023-06-26T04:33:15;19.42;;;5.90;;
53843;SDS011;39744;53.314;5.710;2023-06-26T04:35:41;17.30;;;5.38;;
53843;SDS011;39744;53.314;5.710;2023-06-26T04:38:09;16.90;;;5.22;;
53843;SDS011;39744;53.314;5.710;2023-06-26T04:40:36;18.70;;;6.43;;
53843;SDS011;39744;53.314;5.710;2023-06-26T04:43:02;16.27;;;4.55;;
53843;SDS011;39744;53.314;5.710;2023-06-26T04:45:28;16.98;;;5.78;;
53843;SDS011;39744;53.314;5.710;2023-06-26T04:47:54;16.27;;;4.72;;
53843;SDS011;39744;53.314;5.710;2023-06-26T04:50:22;16.48;;;5.18;;
53843;SDS011;39744;53.314;5.710;2023-06-26T04:52:47;14.90;;;5.00;;
53843;SDS011;39744;53.314;5.710;2023-06-26T04:55:13;15.88;;;5.30;;
53843;SDS011;39744;53.314;5.710;2023-06-26T04:57:40;18.65;;;5.18;;
53843;SDS011;39744;53.314;5.710;2023-06-26T05:00:06;18.50;;;4.70;;
53843;SDS011;39744;53.314;5.710;2023-06-26T05:02:35;18.20;;;4.97;;
53843;SDS011;39744;53.314;5.710;2023-06-26T05:05:01;17.45;;;4.70;;
53843;SDS011;39744;53.314;5.710;2023-06-26T05:07:27;15.95;;;4.40;;
53843;SDS011;39744;53.314;5.710;2023-06-26T05:09:53;18.33;;;4.88;;
53843;SDS011;39744;53.314;5.710;2023-06-26T05:12:20;16.08;;;4.90;;
53843;SDS011;39744;53.314;5.710;2023-06-26T05:14:46;17.58;;;4.65;;
53843;SDS011;39744;53.314;5.710;2023-06-26T05:17:15;20.27;;;5.00;;
53843;SDS011;39744;53.314;5.710;2023-06-26T05:19:43;17.17;;;4.00;;
53843;SDS011;39744;53.314;5.710;2023-06-26T05:22:09;12.13;;;3.90;;
53843;SDS011;39744;53.314;5.710;2023-06-26T05:24:35;15.63;;;4.00;;
53843;SDS011;39744;53.314;5.710;2023-06-26T05:27:01;16.35;;;3.67;;
53843;SDS011;39744;53.314;5.710;2023-06-26T05:29:28;13.10;;;3.85;;
53843;SDS011;39744;53.314;5.710;2023-06-26T05:31:54;15.38;;;3.47;;
53843;SDS011;39744;53.314;5.710;2023-06-26T05:34:22;13.95;;;3.72;;
53843;SDS011;39744;53.314;5.710;2023-06-26T05:36:50;15.05;;;4.43;;
53843;SDS011;39744;53.314;5.710;2023-06-26T05:39:16;15.25;;;3.35;;
53843;SDS011;39744;53.314;5.710;2023-06-26T05:41:45;14.32;;;3.70;;
53843;SDS011;39744;53.314;5.710;2023-06-26T05:44:11;13.05;;;3.10;;
53843;SDS011;39744;53.314;5.710;2023-06-26T05:46:37;12.10;;;3.17;;
53843;SDS011;39744;53.314;5.710;2023-06-26T05:49:03;9.93;;;4.15;;
53843;SDS011;39744;53.314;5.710;2023-06-26T05:51:30;8.98;;;2.67;;
53843;SDS011;39744;53.314;5.710;2023-06-26T05:53:56;8.48;;;3.30;;
53843;SDS011;39744;53.314;5.710;2023-06-26T05:56:22;8.50;;;2.92;;
53843;SDS011;39744;53.314;5.710;2023-06-26T05:58:48;10.40;;;3.47;;
53843;SDS011;39744;53.314;5.710;2023-06-26T06:01:18;11.40;;;2.75;;
53843;SDS011;39744;53.314;5.710;2023-06-26T06:03:45;12.57;;;3.15;;
53843;SDS011;39744;53.314;5.710;2023-06-26T06:06:11;8.13;;;2.78;;
53843;SDS011;39744;53.314;5.710;2023-06-26T06:08:37;11.73;;;2.70;;
53843;SDS011;39744;53.314;5.710;2023-06-26T06:11:03;10.65;;;3.00;;
53843;SDS011;39744;53.314;5.710;2023-06-26T06:13:30;8.75;;;2.50;;
53843;SDS011;39744;53.314;5.710;2023-06-26T06:15:56;10.95;;;2.85;;
53843;SDS011;39744;53.314;5.710;2023-06-26T06:18:22;12.20;;;3.00;;
53843;SDS011;39744;53.314;5.710;2023-06-26T06:20:48;7.07;;;2.42;;
53843;SDS011;39744;53.314;5.710;2023-06-26T06:23:14;7.97;;;2.40;;
53843;SDS011;39744;53.314;5.710;2023-06-26T06:25:40;8.15;;;2.78;;
53843;SDS011;39744;53.314;5.710;2023-06-26T06:28:06;9.82;;;3.03;;
53843;SDS011;39744;53.314;5.710;2023-06-26T06:30:33;9.05;;;2.40;;
53843;SDS011;39744;53.314;5.710;2023-06-26T06:33:02;8.20;;;2.38;;
53843;SDS011;39744;53.314;5.710;2023-06-26T06:35:28;9.55;;;2.58;;
53843;SDS011;39744;53.314;5.710;2023-06-26T06:37:54;11.38;;;2.70;;
53843;SDS011;39744;53.314;5.710;2023-06-26T06:40:20;10.65;;;2.28;;
53843;SDS011;39744;53.314;5.710;2023-06-26T06:42:47;8.23;;;2.58;;
53843;SDS011;39744;53.314;5.710;2023-06-26T06:45:13;8.20;;;2.38;;
53843;SDS011;39744;53.314;5.710;2023-06-26T06:47:39;8.63;;;2.60;;
53843;SDS011;39744;53.314;5.710;2023-06-26T06:50:05;8.35;;;2.42;;
53843;SDS011;39744;53.314;5.710;2023-06-26T06:52:35;7.05;;;2.25;;
53843;SDS011;39744;53.314;5.710;2023-06-26T06:55:02;11.52;;;2.45;;
53843;SDS011;39744;53.314;5.710;2023-06-26T06:57:33;7.25;;;2.35;;
53843;SDS011;39744;53.314;5.710;2023-06-26T07:00:02;8.55;;;2.70;;
53843;SDS011;39744;53.314;5.710;2023-06-26T07:02:29;9.13;;;2.75;;
53843;SDS011;39744;53.314;5.710;2023-06-26T07:04:55;8.02;;;2.30;;
53843;SDS011;39744;53.314;5.710;2023-06-26T07:07:21;8.48;;;2.70;;
53843;SDS011;39744;53.314;5.710;2023-06-26T07:09:47;8.70;;;3.00;;
53843;SDS011;39744;53.314;5.710;2023-06-26T07:12:13;7.18;;;2.67;;
53843;SDS011;39744;53.314;5.710;2023-06-26T07:14:42;7.50;;;2.42;;
53843;SDS011;39744;53.314;5.710;2023-06-26T07:17:08;12.75;;;2.97;;
53843;SDS011;39744;53.314;5.710;2023-06-26T07:19:34;10.23;;;2.33;;
53843;SDS011;39744;53.314;5.710;2023-06-26T07:22:00;9.75;;;2.80;;
53843;SDS011;39744;53.314;5.710;2023-06-26T07:24:26;9.27;;;2.97;;
53843;SDS011;39744;53.314;5.710;2023-06-26T07:26:52;10.23;;;2.88;;
53843;SDS011;39744;53.314;5.710;2023-06-26T07:29:18;9.90;;;2.38;;
53843;SDS011;39744;53.314;5.710;2023-06-26T07:31:45;9.52;;;2.58;;
53843;SDS011;39744;53.314;5.710;2023-06-26T07:34:11;8.68;;;2.60;;
53843;SDS011;39744;53.314;5.710;2023-06-26T07:36:37;8.95;;;2.65;;
53843;SDS011;39744;53.314;5.710;2023-06-26T07:39:03;6.53;;;2.47;;
53843;SDS011;39744;53.314;5.710;2023-06-26T07:41:29;9.82;;;2.92;;
53843;SDS011;39744;53.314;5.710;2023-06-26T07:43:56;9.45;;;2.58;;
53843;SDS011;39744;53.314;5.710;2023-06-26T07:46:22;6.28;;;3.25;;
53843;SDS011;39744;53.314;5.710;2023-06-26T07:48:48;10.88;;;2.78;;
53843;SDS011;39744;53.314;5.710;2023-06-26T07:51:14;11.48;;;3.40;;
53843;SDS011;39744;53.314;5.710;2023-06-26T07:53:43;7.90;;;3.25;;
53843;SDS011;39744;53.314;5.710;2023-06-26T07:56:09;9.27;;;2.83;;
53843;SDS011;39744;53.314;5.710;2023-06-26T07:58:35;13.48;;;3.20;;
53843;SDS011;39744;53.314;5.710;2023-06-26T08:01:01;11.30;;;3.10;;
53843;SDS011;39744;53.314;5.710;2023-06-26T08:03:44;9.18;;;2.60;;
53843;SDS011;39744;53.314;5.710;2023-06-26T08:06:10;12.57;;;2.80;;
53843;SDS011;39744;53.314;5.710;2023-06-26T08:08:36;7.70;;;2.65;;
53843;SDS011;39744;53.314;5.710;2023-06-26T08:11:02;7.47;;;2.85;;
53843;SDS011;39744;53.314;5.710;2023-06-26T08:13:28;9.63;;;2.65;;
53843;SDS011;39744;53.314;5.710;2023-06-26T08:15:54;8.23;;;3.15;;
53843;SDS011;39744;53.314;5.710;2023-06-26T08:18:20;10.75;;;3.25;;
53843;SDS011;39744;53.314;5.710;2023-06-26T08:20:46;11.43;;;2.90;;
53843;SDS011;39744;53.314;5.710;2023-06-26T08:23:12;9.35;;;3.63;;
53843;SDS011;39744;53.314;5.710;2023-06-26T08:25:38;11.43;;;4.25;;
53843;SDS011;39744;53.314;5.710;2023-06-26T08:28:04;12.18;;;4.13;;
53843;SDS011;39744;53.314;5.710;2023-06-26T08:30:31;11.20;;;4.65;;
53843;SDS011;39744;53.314;5.710;2023-06-26T08:32:57;13.68;;;4.32;;
53843;SDS011;39744;53.314;5.710;2023-06-26T08:35:23;9.85;;;3.55;;
53843;SDS011;39744;53.314;5.710;2023-06-26T08:37:49;8.68;;;3.38;;
53843;SDS011;39744;53.314;5.710;2023-06-26T08:40:16;9.48;;;4.30;;
53843;SDS011;39744;53.314;5.710;2023-06-26T08:42:46;9.50;;;3.83;;
53843;SDS011;39744;53.314;5.710;2023-06-26T08:45:12;12.23;;;3.78;;
53843;SDS011;39744;53.314;5.710;2023-06-26T08:47:38;8.65;;;4.07;;
53843;SDS011;39744;53.314;5.710;2023-06-26T08:50:09;9.68;;;4.18;;
53843;SDS011;39744;53.314;5.710;2023-06-26T08:55:23;9.00;;;4.57;;
53843;SDS011;39744;53.314;5.710;2023-06-26T08:57:51;7.35;;;3.67;;
53843;SDS011;39744;53.314;5.710;2023-06-26T09:00:18;8.18;;;4.20;;
53843;SDS011;39744;53.314;5.710;2023-06-26T09:02:45;9.43;;;3.95;;
53843;SDS011;39744;53.314;5.710;2023-06-26T09:05:11;7.82;;;3.85;;
53843;SDS011;39744;53.314;5.710;2023-06-26T09:07:37;10.52;;;4.50;;
53843;SDS011;39744;53.314;5.710;2023-06-26T09:10:03;8.45;;;3.78;;
53843;SDS011;39744;53.314;5.710;2023-06-26T09:12:29;5.40;;;3.05;;
53843;SDS011;39744;53.314;5.710;2023-06-26T09:14:55;5.53;;;2.90;;
53843;SDS011;39744;53.314;5.710;2023-06-26T09:17:25;8.07;;;3.17;;
53843;SDS011;39744;53.314;5.710;2023-06-26T09:19:54;13.18;;;3.30;;
53843;SDS011;39744;53.314;5.710;2023-06-26T09:22:21;8.25;;;3.05;;
53843;SDS011;39744;53.314;5.710;2023-06-26T09:24:47;8.15;;;2.70;;
53843;SDS011;39744;53.314;5.710;2023-06-26T09:27:14;8.75;;;3.03;;
53843;SDS011;39744;53.314;5.710;2023-06-26T09:29:40;9.75;;;3.00;;
53843;SDS011;39744;53.314;5.710;2023-06-26T09:32:07;9.20;;;3.10;;
53843;SDS011;39744;53.314;5.710;2023-06-26T09:34:34;8.05;;;2.90;;
53843;SDS011;39744;53.314;5.710;2023-06-26T09:37:00;8.55;;;3.03;;
53843;SDS011;39744;53.314;5.710;2023-06-26T09:39:30;11.23;;;2.97;;
53843;SDS011;39744;53.314;5.710;2023-06-26T09:41:56;9.07;;;3.22;;
53843;SDS011;39744;53.314;5.710;2023-06-26T09:44:22;11.20;;;2.72;;
53843;SDS011;39744;53.314;5.710;2023-06-26T09:46:48;7.38;;;2.97;;
53843;SDS011;39744;53.314;5.710;2023-06-26T09:49:15;7.13;;;2.53;;
53843;SDS011;39744;53.314;5.710;2023-06-26T09:51:42;12.82;;;2.40;;
53843;SDS011;39744;53.314;5.710;2023-06-26T09:54:08;6.57;;;2.55;;
53843;SDS011;39744;53.314;5.710;2023-06-26T09:56:34;10.75;;;2.78;;
53843;SDS011;39744;53.314;5.710;2023-06-26T10:01:27;15.40;;;3.50;;
53843;SDS011;39744;53.314;5.710;2023-06-26T10:03:54;12.02;;;2.78;;
53843;SDS011;39744;53.314;5.710;2023-06-26T10:06:24;11.05;;;3.10;;
53843;SDS011;39744;53.314;5.710;2023-06-26T10:08:53;11.30;;;2.72;;
53843;SDS011;39744;53.314;5.710;2023-06-26T10:11:20;9.52;;;2.53;;
53843;SDS011;39744;53.314;5.710;2023-06-26T10:13:47;10.48;;;2.92;;
53843;SDS011;39744;53.314;5.710;2023-06-26T10:16:17;8.70;;;2.35;;
53843;SDS011;39744;53.314;5.710;2023-06-26T10:18:43;12.20;;;3.28;;
53843;SDS011;39744;53.314;5.710;2023-06-26T10:21:10;11.98;;;2.80;;
53843;SDS011;39744;53.314;5.710;2023-06-26T10:23:39;11.48;;;2.70;;
53843;SDS011;39744;53.314;5.710;2023-06-26T10:26:06;12.45;;;2.60;;
53843;SDS011;39744;53.314;5.710;2023-06-26T10:28:32;11.65;;;2.88;;
53843;SDS011;39744;53.314;5.710;2023-06-26T10:30:58;14.40;;;2.90;;
53843;SDS011;39744;53.314;5.710;2023-06-26T10:33:27;13.35;;;2.65;;
53843;SDS011;39744;53.314;5.710;2023-06-26T10:35:53;8.35;;;2.55;;
53843;SDS011;39744;53.314;5.710;2023-06-26T10:38:19;7.60;;;2.88;;
53843;SDS011;39744;53.314;5.710;2023-06-26T10:40:46;11.45;;;2.55;;
53843;SDS011;39744;53.314;5.710;2023-06-26T10:43:13;7.88;;;2.60;;
53843;SDS011;39744;53.314;5.710;2023-06-26T10:45:46;10.50;;;2.83;;
53843;SDS011;39744;53.314;5.710;2023-06-26T10:48:17;15.35;;;3.10;;
53843;SDS011;39744;53.314;5.710;2023-06-26T10:50:43;11.68;;;2.85;;
53843;SDS011;39744;53.314;5.710;2023-06-26T10:55:54;11.82;;;2.70;;
53843;SDS011;39744;53.314;5.710;2023-06-26T10:58:40;12.43;;;2.95;;
53843;SDS011;39744;53.314;5.710;2023-06-26T11:03:39;8.57;;;2.17;;
53843;SDS011;39744;53.314;5.710;2023-06-26T11:06:09;9.02;;;2.60;;
53843;SDS011;39744;53.314;5.710;2023-06-26T11:08:45;11.55;;;2.45;;
53843;SDS011;39744;53.314;5.710;2023-06-26T11:11:12;10.05;;;2.90;;
53843;SDS011;39744;53.314;5.710;2023-06-26T11:13:39;10.70;;;3.17;;
53843;SDS011;39744;53.314;5.710;2023-06-26T11:16:05;10.73;;;2.65;;
53843;SDS011;39744;53.314;5.710;2023-06-26T11:18:31;8.05;;;2.35;;
53843;SDS011;39744;53.314;5.710;2023-06-26T11:21:31;8.80;;;2.72;;
53843;SDS011;39744;53.314;5.710;2023-06-26T11:23:50;9.63;;;2.63;;
53843;SDS011;39744;53.314;5.710;2023-06-26T11:26:20;7.38;;;2.60;;
53843;SDS011;39744;53.314;5.710;2023-06-26T11:28:47;14.23;;;2.70;;
53843;SDS011;39744;53.314;5.710;2023-06-26T11:31:29;11.32;;;2.80;;
53843;SDS011;39744;53.314;5.710;2023-06-26T11:33:56;10.52;;;2.55;;
53843;SDS011;39744;53.314;5.710;2023-06-26T11:36:28;8.75;;;2.67;;
53843;SDS011;39744;53.314;5.710;2023-06-26T11:38:55;11.95;;;2.95;;
53843;SDS011;39744;53.314;5.710;2023-06-26T11:41:21;11.32;;;3.03;;
53843;SDS011;39744;53.314;5.710;2023-06-26T11:43:47;14.38;;;3.00;;
53843;SDS011;39744;53.314;5.710;2023-06-26T11:46:15;11.57;;;2.60;;
53843;SDS011;39744;53.314;5.710;2023-06-26T11:48:42;14.32;;;3.63;;
53843;SDS011;39744;53.314;5.710;2023-06-26T11:51:08;10.60;;;2.78;;
53843;SDS011;39744;53.314;5.710;2023-06-26T11:53:39;11.63;;;2.60;;
53843;SDS011;39744;53.314;5.710;2023-06-26T11:56:12;12.25;;;3.15;;
53843;SDS011;39744;53.314;5.710;2023-06-26T11:58:58;10.60;;;2.75;;
53843;SDS011;39744;53.314;5.710;2023-06-26T12:01:25;12.20;;;3.10;;
53843;SDS011;39744;53.314;5.710;2023-06-26T12:03:54;15.07;;;3.53;;
53843;SDS011;39744;53.314;5.710;2023-06-26T12:06:20;6.95;;;2.60;;
53843;SDS011;39744;53.314;5.710;2023-06-26T12:08:46;9.85;;;3.00;;
53843;SDS011;39744;53.314;5.710;2023-06-26T12:11:12;10.63;;;2.92;;
53843;SDS011;39744;53.314;5.710;2023-06-26T12:13:38;8.77;;;2.78;;
53843;SDS011;39744;53.314;5.710;2023-06-26T12:16:04;11.38;;;3.05;;
53843;SDS011;39744;53.314;5.710;2023-06-26T12:18:37;9.65;;;2.50;;
53843;SDS011;39744;53.314;5.710;2023-06-26T12:21:04;12.48;;;3.35;;
53843;SDS011;39744;53.314;5.710;2023-06-26T12:23:34;8.98;;;2.75;;
53843;SDS011;39744;53.314;5.710;2023-06-26T12:26:17;9.48;;;3.13;;
53843;SDS011;39744;53.314;5.710;2023-06-26T12:28:44;12.02;;;2.63;;
53843;SDS011;39744;53.314;5.710;2023-06-26T12:31:17;8.68;;;2.35;;
53843;SDS011;39744;53.314;5.710;2023-06-26T12:33:43;10.50;;;2.80;;
53843;SDS011;39744;53.314;5.710;2023-06-26T12:36:12;8.32;;;2.80;;
53843;SDS011;39744;53.314;5.710;2023-06-26T12:38:39;12.18;;;3.10;;
53843;SDS011;39744;53.314;5.710;2023-06-26T12:41:05;10.48;;;2.63;;
53843;SDS011;39744;53.314;5.710;2023-06-26T12:43:31;10.27;;;2.55;;
53843;SDS011;39744;53.314;5.710;2023-06-26T12:45:58;13.77;;;2.80;;
53843;SDS011;39744;53.314;5.710;2023-06-26T12:48:37;12.00;;;2.80;;
53843;SDS011;39744;53.314;5.710;2023-06-26T12:51:09;11.02;;;2.85;;
53843;SDS011;39744;53.314;5.710;2023-06-26T12:53:35;10.20;;;3.00;;
53843;SDS011;39744;53.314;5.710;2023-06-26T12:56:01;9.85;;;2.58;;
53843;SDS011;39744;53.314;5.710;2023-06-26T12:58:27;12.30;;;3.10;;
53843;SDS011;39744;53.314;5.710;2023-06-26T13:00:53;12.00;;;3.05;;
53843;SDS011;39744;53.314;5.710;2023-06-26T13:03:19;11.10;;;2.30;;
53843;SDS011;39744;53.314;5.710;2023-06-26T13:05:48;11.48;;;2.83;;
53843;SDS011;39744;53.314;5.710;2023-06-26T13:08:14;13.23;;;3.35;;
53843;SDS011;39744;53.314;5.710;2023-06-26T13:10:42;12.90;;;2.85;;
53843;SDS011;39744;53.314;5.710;2023-06-26T13:13:09;10.60;;;2.40;;
53843;SDS011;39744;53.314;5.710;2023-06-26T13:15:35;10.00;;;2.85;;
53843;SDS011;39744;53.314;5.710;2023-06-26T13:18:01;11.48;;;2.53;;
53843;SDS011;39744;53.314;5.710;2023-06-26T13:20:27;9.18;;;2.53;;
53843;SDS011;39744;53.314;5.710;2023-06-26T13:22:54;11.77;;;2.90;;
53843;SDS011;39744;53.314;5.710;2023-06-26T13:25:20;10.60;;;2.30;;
53843;SDS011;39744;53.314;5.710;2023-06-26T13:27:47;8.93;;;2.90;;
53843;SDS011;39744;53.314;5.710;2023-06-26T13:30:13;11.25;;;2.78;;
53843;SDS011;39744;53.314;5.710;2023-06-26T13:32:40;11.63;;;2.55;;
53843;SDS011;39744;53.314;5.710;2023-06-26T13:35:06;5.85;;;2.10;;
53843;SDS011;39744;53.314;5.710;2023-06-26T13:37:33;8.23;;;2.55;;
53843;SDS011;39744;53.314;5.710;2023-06-26T13:39:59;11.27;;;3.17;;
53843;SDS011;39744;53.314;5.710;2023-06-26T13:42:27;11.35;;;2.50;;
53843;SDS011;39744;53.314;5.710;2023-06-26T13:44:52;13.05;;;2.95;;
53843;SDS011;39744;53.314;5.710;2023-06-26T13:47:19;13.32;;;2.50;;
53843;SDS011;39744;53.314;5.710;2023-06-26T13:49:45;12.68;;;2.80;;
53843;SDS011;39744;53.314;5.710;2023-06-26T13:52:11;11.05;;;2.65;;
53843;SDS011;39744;53.314;5.710;2023-06-26T13:54:37;9.98;;;2.60;;
53843;SDS011;39744;53.314;5.710;2023-06-26T13:57:05;13.57;;;3.13;;
53843;SDS011;39744;53.314;5.710;2023-06-26T13:59:31;11.50;;;2.63;;
53843;SDS011;39744;53.314;5.710;2023-06-26T14:01:57;11.30;;;2.63;;
53843;SDS011;39744;53.314;5.710;2023-06-26T14:04:24;10.55;;;2.53;;
53843;SDS011;39744;53.314;5.710;2023-06-26T14:06:50;7.78;;;2.17;;
53843;SDS011;39744;53.314;5.710;2023-06-26T14:09:16;9.57;;;2.63;;
53843;SDS011;39744;53.314;5.710;2023-06-26T14:11:43;11.23;;;2.80;;
53843;SDS011;39744;53.314;5.710;2023-06-26T14:14:09;10.45;;;2.55;;
53843;SDS011;39744;53.314;5.710;2023-06-26T14:16:35;11.50;;;2.55;;
53843;SDS011;39744;53.314;5.710;2023-06-26T14:19:01;11.07;;;2.70;;
53843;SDS011;39744;53.314;5.710;2023-06-26T14:21:28;7.65;;;2.88;;
53843;SDS011;39744;53.314;5.710;2023-06-26T14:23:56;14.48;;;3.42;;
53843;SDS011;39744;53.314;5.710;2023-06-26T14:26:23;11.35;;;2.63;;
53843;SDS011;39744;53.314;5.710;2023-06-26T14:28:49;11.38;;;2.50;;
53843;SDS011;39744;53.314;5.710;2023-06-26T14:31:15;12.00;;;2.78;;
53843;SDS011;39744;53.314;5.710;2023-06-26T14:33:44;12.27;;;2.50;;
53843;SDS011;39744;53.314;5.710;2023-06-26T14:36:10;14.70;;;3.22;;
53843;SDS011;39744;53.314;5.710;2023-06-26T14:38:36;11.90;;;2.50;;
53843;SDS011;39744;53.314;5.710;2023-06-26T14:41:02;12.70;;;2.83;;
53843;SDS011;39744;53.314;5.710;2023-06-26T14:43:28;13.38;;;2.63;;
53843;SDS011;39744;53.314;5.710;2023-06-26T14:45:54;13.82;;;2.50;;
53843;SDS011;39744;53.314;5.710;2023-06-26T14:48:20;9.18;;;2.58;;
53843;SDS011;39744;53.314;5.710;2023-06-26T14:50:46;11.65;;;2.88;;
53843;SDS011;39744;53.314;5.710;2023-06-26T14:53:12;15.07;;;2.90;;